createdAt,value
2023-02-22T00:01:35.300Z,101481.91
2023-02-22T00:04:03.700Z,101482.72
2023-02-22T00:06:31.060Z,101473.19
2023-02-22T00:08:58.336Z,101478.09
2023-02-22T00:11:25.401Z,101476.66
2023-02-22T00:13:52.240Z,101467.25
2023-02-22T00:16:21.176Z,101466.06
2023-02-22T00:18:48.433Z,101464.44
2023-02-22T00:21:16.536Z,101477.31
2023-02-22T00:23:49.100Z,101472.34
2023-02-22T00:26:20.932Z,101466.56
2023-02-22T00:28:49.014Z,101465.75
2023-02-22T00:31:16.008Z,101461.38
2023-02-22T00:33:43.148Z,101462.13
2023-02-22T00:36:11.386Z,101468.16
2023-02-22T00:38:37.890Z,101457.53
2023-02-22T00:41:04.876Z,101460.59
2023-02-22T00:43:31.273Z,101458.34
2023-02-22T00:45:57.924Z,101452.38
2023-02-22T00:48:24.445Z,101452.47
2023-02-22T00:50:55.224Z,101454.75
2023-02-22T00:53:23.597Z,101452.00
2023-02-22T00:55:50.535Z,101453.34
2023-02-22T00:58:17.079Z,101442.16
2023-02-22T01:00:43.841Z,101448.34
2023-02-22T01:03:13.352Z,101440.56
2023-02-22T01:05:39.943Z,101446.16
2023-02-22T01:08:08.375Z,101440.19
2023-02-22T01:10:35.480Z,101431.38
2023-02-22T01:13:04.846Z,101426.53
2023-02-22T01:15:31.255Z,101438.94
2023-02-22T01:17:58.525Z,101425.38
2023-02-22T01:20:26.175Z,101424.00
2023-02-22T01:22:54.436Z,101430.13
2023-02-22T01:25:24.372Z,101432.19
2023-02-22T01:27:51.490Z,101428.00
2023-02-22T01:30:24.737Z,101425.69
2023-02-22T01:32:51.619Z,101421.50
2023-02-22T01:35:21.504Z,101419.31
2023-02-22T01:37:47.887Z,101414.75
2023-02-22T01:40:20.462Z,101412.41
2023-02-22T01:42:57.651Z,101401.63
2023-02-22T01:45:30.212Z,101403.09
2023-02-22T01:47:58.788Z,101403.44
2023-02-22T01:50:25.197Z,101399.59
2023-02-22T01:52:51.688Z,101400.06
2023-02-22T01:55:18.352Z,101402.22
2023-02-22T01:57:44.842Z,101397.66
2023-02-22T02:00:16.893Z,101397.81
2023-02-22T02:02:46.592Z,101395.81
2023-02-22T02:05:13.616Z,101397.03
2023-02-22T02:07:40.813Z,101398.50
2023-02-22T02:10:14.484Z,101391.63
2023-02-22T02:12:46.619Z,101394.66
2023-02-22T02:15:16.772Z,101389.34
2023-02-22T02:17:43.583Z,101390.88
2023-02-22T02:20:24.962Z,101387.75
2023-02-22T02:23:29.004Z,101379.34
2023-02-22T02:26:27.506Z,101384.78
2023-02-22T02:29:30.958Z,101377.09
2023-02-22T02:32:40.507Z,101375.13
2023-02-22T02:35:07.053Z,101376.84
2023-02-22T02:37:44.567Z,101378.44
2023-02-22T02:40:58.566Z,101367.66
2023-02-22T02:43:36.961Z,101366.50
2023-02-22T02:46:11.623Z,101365.75
2023-02-22T02:48:42.265Z,101363.78
2023-02-22T02:51:09.595Z,101361.00
2023-02-22T02:53:39.066Z,101350.84
2023-02-22T02:56:06.085Z,101354.31
2023-02-22T02:58:32.650Z,101359.28
2023-02-22T03:01:01.424Z,101353.59
2023-02-22T03:03:49.953Z,101351.44
2023-02-22T03:06:35.815Z,101344.50
2023-02-22T03:09:24.051Z,101341.50
2023-02-22T03:12:09.221Z,101333.03
2023-02-22T03:14:42.789Z,101330.72
2023-02-22T03:17:23.684Z,101333.28
2023-02-22T03:19:53.658Z,101327.53
2023-02-22T03:22:27.225Z,101327.47
2023-02-22T03:25:02.175Z,101333.28
2023-02-22T03:27:44.632Z,101327.56
2023-02-22T03:30:24.106Z,101322.59
2023-02-22T03:32:53.243Z,101320.03
2023-02-22T03:35:23.394Z,101319.34
2023-02-22T03:37:54.489Z,101316.69
2023-02-22T03:40:36.073Z,101318.28
2023-02-22T03:43:07.691Z,101323.56
2023-02-22T03:45:34.624Z,101314.00
2023-02-22T03:48:06.515Z,101320.88
2023-02-22T03:50:36.070Z,101308.75
2023-02-22T03:53:02.902Z,101322.38
2023-02-22T03:55:31.366Z,101317.16
2023-02-22T03:57:59.328Z,101318.69
2023-02-22T04:00:28.220Z,101320.22
2023-02-22T04:02:54.906Z,101314.63
2023-02-22T04:05:21.971Z,101319.69
2023-02-22T04:07:48.374Z,101313.63
2023-02-22T04:10:16.294Z,101317.16
2023-02-22T04:12:42.667Z,101317.34
2023-02-22T04:15:11.585Z,101316.38
2023-02-22T04:17:38.011Z,101311.16
2023-02-22T04:20:06.183Z,101309.72
2023-02-22T04:22:32.732Z,101308.28
2023-02-22T04:24:59.145Z,101318.97
2023-02-22T04:27:25.783Z,101313.34
2023-02-22T04:29:52.265Z,101311.44
2023-02-22T04:32:18.662Z,101313.44
2023-02-22T04:34:45.131Z,101314.59
2023-02-22T04:37:12.281Z,101306.34
2023-02-22T04:39:38.799Z,101304.47
2023-02-22T04:42:05.459Z,101308.66
2023-02-22T04:44:32.160Z,101305.63
2023-02-22T04:46:58.629Z,101301.84
2023-02-22T04:49:25.041Z,101306.84
2023-02-22T04:51:51.419Z,101307.66
2023-02-22T04:54:18.387Z,101295.13
2023-02-22T04:56:45.314Z,101303.13
2023-02-22T04:59:11.771Z,101297.13
2023-02-22T05:01:38.674Z,101293.34
2023-02-22T05:04:06.395Z,101302.09
2023-02-22T05:06:33.030Z,101299.38
2023-02-22T05:08:59.502Z,101301.31
2023-02-22T05:11:25.937Z,101296.78
2023-02-22T05:13:53.329Z,101296.00
2023-02-22T05:16:19.781Z,101293.38
2023-02-22T05:18:46.217Z,101289.94
2023-02-22T05:21:13.572Z,101291.44
2023-02-22T05:23:40.143Z,101280.78
2023-02-22T05:26:06.601Z,101282.22
2023-02-22T05:28:33.250Z,101273.47
2023-02-22T05:30:59.692Z,101279.50
2023-02-22T05:33:26.137Z,101270.34
2023-02-22T05:35:52.614Z,101270.31
2023-02-22T05:38:19.000Z,101269.94
2023-02-22T05:40:45.460Z,101265.75
2023-02-22T05:43:11.928Z,101271.41
2023-02-22T05:45:38.327Z,101266.84
2023-02-22T05:48:04.955Z,101258.53
2023-02-22T05:50:33.229Z,101251.66
2023-02-22T05:52:59.940Z,101247.56
2023-02-22T05:55:26.510Z,101252.53
2023-02-22T05:57:53.174Z,101247.13
2023-02-22T06:00:25.673Z,101241.16
2023-02-22T06:02:59.547Z,101241.25
2023-02-22T06:05:26.545Z,101236.69
2023-02-22T06:07:53.797Z,101237.16
2023-02-22T06:10:20.379Z,101237.91
2023-02-22T06:12:48.014Z,101245.03
2023-02-22T06:15:18.824Z,101240.13
2023-02-22T06:17:45.445Z,101239.03
2023-02-22T06:20:14.143Z,101235.28
2023-02-22T06:22:44.690Z,101236.00
2023-02-22T06:25:14.505Z,101238.97
2023-02-22T06:27:40.969Z,101232.53
2023-02-22T06:30:08.204Z,101231.34
2023-02-22T06:32:34.608Z,101232.81
2023-02-22T06:35:01.009Z,101235.09
2023-02-22T06:37:27.384Z,101233.19
2023-02-22T06:39:53.782Z,101232.78
2023-02-22T06:42:20.374Z,101230.41
2023-02-22T06:44:46.948Z,101227.31
2023-02-22T06:47:13.602Z,101235.50
2023-02-22T06:49:40.030Z,101226.34
2023-02-22T06:52:07.404Z,101226.00
2023-02-22T06:54:33.880Z,101231.56
2023-02-22T06:57:00.325Z,101228.78
2023-02-22T06:59:27.992Z,101238.97
2023-02-22T07:01:54.559Z,101231.34
2023-02-22T07:04:21.566Z,101230.50
2023-02-22T07:06:52.117Z,101230.47
2023-02-22T07:09:18.911Z,101229.25
2023-02-22T07:11:45.408Z,101226.47
2023-02-22T07:14:11.786Z,101227.06
2023-02-22T07:16:38.290Z,101226.91
2023-02-22T07:19:04.682Z,101233.84
2023-02-22T07:21:31.099Z,101231.34
2023-02-22T07:23:59.002Z,101237.75
2023-02-22T07:26:26.211Z,101236.25
2023-02-22T07:28:52.654Z,101238.13
2023-02-22T07:31:19.188Z,101240.31
2023-02-22T07:33:49.321Z,101231.06
2023-02-22T07:36:17.935Z,101227.31
2023-02-22T07:38:45.574Z,101235.44
2023-02-22T07:41:12.790Z,101231.59
2023-02-22T07:43:39.293Z,101223.34
2023-02-22T07:46:05.837Z,101228.75
2023-02-22T07:48:32.466Z,101225.34
2023-02-22T07:50:59.278Z,101232.38
2023-02-22T07:53:30.184Z,101229.28
2023-02-22T07:56:01.344Z,101221.13
2023-02-22T07:58:29.694Z,101227.16
2023-02-22T08:00:56.260Z,101230.00
2023-02-22T08:03:25.189Z,101228.66
2023-02-22T08:05:54.185Z,101228.16
2023-02-22T08:08:20.831Z,101225.06
2023-02-22T08:10:47.846Z,101219.66
2023-02-22T08:13:14.585Z,101226.50
2023-02-22T08:15:43.988Z,101217.28
2023-02-22T08:18:12.594Z,101222.59
2023-02-22T08:20:41.429Z,101211.84
2023-02-22T08:23:09.168Z,101211.44
2023-02-22T08:25:36.202Z,101210.06
2023-02-22T08:28:09.288Z,101207.19
2023-02-22T08:30:38.985Z,101220.25
2023-02-22T08:33:06.761Z,101216.59
2023-02-22T08:35:33.784Z,101210.25
2023-02-22T08:38:03.040Z,101216.22
2023-02-22T08:40:31.678Z,101211.88
2023-02-22T08:42:58.488Z,101208.94
2023-02-22T08:45:25.311Z,101208.41
2023-02-22T08:47:52.006Z,101207.47
2023-02-22T08:50:24.349Z,101206.31
2023-02-22T08:52:52.225Z,101207.56
2023-02-22T08:55:22.918Z,101199.25
2023-02-22T08:57:50.579Z,101204.88
2023-02-22T09:00:18.672Z,101193.31
2023-02-22T09:02:45.206Z,101208.97
2023-02-22T09:05:11.935Z,101202.66
2023-02-22T09:07:41.933Z,101198.41
2023-02-22T09:10:11.513Z,101196.41
2023-02-22T09:12:37.929Z,101192.22
2023-02-22T09:15:04.502Z,101187.31
2023-02-22T09:17:31.275Z,101196.31
2023-02-22T09:19:57.863Z,101194.66
2023-02-22T09:22:24.283Z,101189.53
2023-02-22T09:24:52.365Z,101190.81
2023-02-22T09:27:20.126Z,101190.97
2023-02-22T09:29:48.752Z,101194.81
2023-02-22T09:32:18.101Z,101187.34
2023-02-22T09:34:45.841Z,101194.44
2023-02-22T09:37:13.502Z,101193.53
2023-02-22T09:39:39.973Z,101186.34
2023-02-22T09:42:12.543Z,101182.81
2023-02-22T09:44:57.616Z,101193.78
2023-02-22T09:47:33.605Z,101190.16
2023-02-22T09:50:16.307Z,101183.38
2023-02-22T09:52:59.494Z,101191.47
2023-02-22T09:55:35.185Z,101191.31
2023-02-22T09:58:06.640Z,101190.63
2023-02-22T10:00:36.604Z,101195.72
2023-02-22T10:03:22.911Z,101185.38
2023-02-22T10:05:57.148Z,101185.38
2023-02-22T10:08:31.167Z,101178.50
2023-02-22T10:11:21.904Z,101179.25
2023-02-22T10:13:58.343Z,101169.66
2023-02-22T10:16:34.796Z,101166.13
2023-02-22T10:19:13.547Z,101165.41
2023-02-22T10:22:14.583Z,101162.00
2023-02-22T10:24:47.204Z,101157.66
2023-02-22T10:27:22.243Z,101155.50
2023-02-22T10:29:52.577Z,101157.19
2023-02-22T10:32:26.707Z,101155.00
2023-02-22T10:34:54.629Z,101155.53
2023-02-22T10:37:29.881Z,101153.31
2023-02-22T10:40:22.951Z,101151.28
2023-02-22T10:42:50.115Z,101151.63
2023-02-22T10:45:30.062Z,101150.66
2023-02-22T10:47:59.089Z,101150.47
2023-02-22T10:50:30.790Z,101147.63
2023-02-22T10:52:57.832Z,101136.06
2023-02-22T10:55:25.920Z,101142.72
2023-02-22T10:58:00.871Z,101135.53
2023-02-22T11:00:39.773Z,101136.78
2023-02-22T11:03:18.635Z,101132.91
2023-02-22T11:05:45.579Z,101125.72
2023-02-22T11:08:21.184Z,101126.06
2023-02-22T11:10:48.888Z,101123.69
2023-02-22T11:13:26.207Z,101120.78
2023-02-22T11:15:59.765Z,101119.41
2023-02-22T11:18:36.033Z,101119.91
2023-02-22T11:21:05.816Z,101117.22
2023-02-22T11:23:32.993Z,101109.16
2023-02-22T11:26:07.367Z,101114.94
2023-02-22T11:28:34.247Z,101111.47
2023-02-22T11:31:17.416Z,101109.56
2023-02-22T11:34:27.402Z,101100.97
2023-02-22T11:36:54.045Z,101098.66
2023-02-22T11:39:22.086Z,101089.63
2023-02-22T11:41:50.061Z,101092.38
2023-02-22T11:44:29.771Z,101100.06
2023-02-22T11:47:01.325Z,101099.59
2023-02-22T11:49:38.274Z,101087.91
2023-02-22T11:52:19.340Z,101090.91
2023-02-22T11:55:32.678Z,101087.97
2023-02-22T11:58:27.542Z,101094.72
2023-02-22T12:01:12.060Z,101085.88
2023-02-22T12:04:15.720Z,101079.00
2023-02-22T12:07:06.414Z,101079.47
2023-02-22T12:09:51.510Z,101083.69
2023-02-22T12:12:27.919Z,101075.31
2023-02-22T12:15:00.870Z,101078.44
2023-02-22T12:17:59.748Z,101066.78
2023-02-22T12:20:47.619Z,101064.41
2023-02-22T12:23:44.721Z,101064.22
2023-02-22T12:26:19.975Z,101061.97
2023-02-22T12:28:59.528Z,101057.75
2023-02-22T12:31:51.036Z,101053.28
2023-02-22T12:34:41.500Z,101051.13
2023-02-22T12:37:47.872Z,101059.28
2023-02-22T12:40:35.812Z,101056.00
2023-02-22T12:43:23.343Z,101059.44
2023-02-22T12:46:13.423Z,101048.78
2023-02-22T12:48:49.452Z,101045.81
2023-02-22T12:51:38.558Z,101047.34
2023-02-22T12:54:16.121Z,101041.94
2023-02-22T12:56:55.097Z,101047.00
2023-02-22T12:59:30.563Z,101040.13
2023-02-22T13:02:01.574Z,101039.97
2023-02-22T13:04:31.748Z,101033.84
2023-02-22T13:07:35.685Z,101024.88
2023-02-22T13:10:20.548Z,101024.88
2023-02-22T13:13:04.980Z,101024.28
2023-02-22T13:16:10.290Z,101024.28
2023-02-22T13:18:49.962Z,101014.56
2023-02-22T13:21:19.074Z,101011.63
2023-02-22T13:23:51.683Z,101010.81
2023-02-22T13:26:34.808Z,101010.81
2023-02-22T13:29:14.291Z,101005.66
2023-02-22T13:31:53.111Z,101002.09
2023-02-22T13:34:57.917Z,101008.06
2023-02-22T13:37:41.651Z,101006.28
2023-02-22T13:40:36.580Z,101006.44
2023-02-22T13:43:18.988Z,101005.03
2023-02-22T13:46:23.587Z,101002.28
2023-02-22T13:48:56.033Z,101006.25
2023-02-22T13:51:38.943Z,101003.56
2023-02-22T13:54:34.308Z,100996.44
2023-02-22T13:57:03.005Z,100999.91
2023-02-22T13:59:37.177Z,100998.84
2023-02-22T14:02:05.529Z,100993.31
2023-02-22T14:04:37.130Z,100998.53
2023-02-22T14:07:18.807Z,100997.38
2023-02-22T14:09:50.860Z,100997.50
2023-02-22T14:12:29.464Z,100996.16
2023-02-22T14:15:27.712Z,100994.97
2023-02-22T14:18:05.625Z,101000.78
2023-02-22T14:20:35.885Z,100985.97
2023-02-22T14:23:24.066Z,100985.09
2023-02-22T14:25:50.969Z,100984.00
2023-02-22T14:28:53.004Z,100988.63
2023-02-22T14:31:34.790Z,100988.22
2023-02-22T14:34:05.723Z,100982.09
2023-02-22T14:36:34.256Z,100976.72
2023-02-22T14:39:07.117Z,100978.53
2023-02-22T14:41:34.343Z,100968.03
2023-02-22T14:44:02.571Z,100970.28
2023-02-22T14:46:31.833Z,100969.22
2023-02-22T14:49:01.109Z,100968.31
2023-02-22T14:51:30.948Z,100968.63
2023-02-22T14:54:13.241Z,100952.50
2023-02-22T14:56:44.273Z,100954.88
2023-02-22T14:59:17.915Z,100954.84
2023-02-22T15:02:01.545Z,100951.88
2023-02-22T15:04:31.007Z,100951.41
2023-02-22T15:06:59.121Z,100968.03
2023-02-22T15:09:30.612Z,100960.38
2023-02-22T15:12:04.294Z,100965.41
2023-02-22T15:14:38.926Z,100955.84
2023-02-22T15:17:16.701Z,100950.28
2023-02-22T15:19:43.199Z,100941.22
2023-02-22T15:22:22.202Z,100949.13
2023-02-22T15:24:59.278Z,100948.03
2023-02-22T15:27:26.377Z,100951.63
2023-02-22T15:29:58.556Z,100949.88
2023-02-22T15:32:49.886Z,100943.25
2023-02-22T15:35:26.918Z,100943.25
2023-02-22T15:38:06.211Z,100941.94
2023-02-22T15:40:33.510Z,100955.41
2023-02-22T15:43:08.491Z,100959.69
2023-02-22T15:45:35.498Z,100957.69
2023-02-22T15:48:02.050Z,100960.81
2023-02-22T15:50:33.873Z,100961.03
2023-02-22T15:53:26.468Z,100965.28
2023-02-22T15:55:58.856Z,100965.44
2023-02-22T15:58:29.110Z,100958.03
2023-02-22T16:01:15.689Z,100959.84
2023-02-22T16:03:47.159Z,100959.28
2023-02-22T16:06:35.973Z,100962.59
2023-02-22T16:09:25.693Z,100955.81
2023-02-22T16:12:09.581Z,100954.41
2023-02-22T16:14:35.916Z,100966.72
2023-02-22T16:17:35.655Z,100960.53
2023-02-22T16:20:22.163Z,100964.13
2023-02-22T16:22:50.396Z,100966.50
2023-02-22T16:25:21.497Z,100963.22
2023-02-22T16:28:06.124Z,100965.78
2023-02-22T16:30:39.681Z,100964.50
2023-02-22T16:33:16.506Z,100968.78
2023-02-22T16:35:52.024Z,100959.16
2023-02-22T16:38:19.059Z,100950.06
2023-02-22T16:40:50.513Z,100959.72
2023-02-22T16:43:22.892Z,100961.22
2023-02-22T16:45:49.490Z,100971.59
2023-02-22T16:48:19.441Z,100975.44
2023-02-22T16:50:46.192Z,100970.19
2023-02-22T16:53:12.920Z,100962.69
2023-02-22T16:55:44.675Z,100963.09
2023-02-22T16:58:13.133Z,100968.28
2023-02-22T17:00:42.192Z,100969.19
2023-02-22T17:03:15.116Z,100956.13
2023-02-22T17:05:41.832Z,100959.50
2023-02-22T17:08:08.246Z,100963.00
2023-02-22T17:10:34.799Z,100965.47
2023-02-22T17:13:12.722Z,100969.56
2023-02-22T17:15:46.723Z,100966.22
2023-02-22T17:18:16.165Z,100970.06
2023-02-22T17:20:45.718Z,100970.59
2023-02-22T17:23:12.690Z,100972.78
2023-02-22T17:25:40.681Z,100974.50
2023-02-22T17:28:08.353Z,100984.59
2023-02-22T17:30:36.015Z,100982.97
2023-02-22T17:33:04.751Z,100982.59
2023-02-22T17:35:36.311Z,100981.59
2023-02-22T17:38:06.686Z,100985.94
2023-02-22T17:40:34.801Z,100982.28
2023-02-22T17:43:02.904Z,100983.63
2023-02-22T17:45:29.834Z,100989.72
2023-02-22T17:47:59.254Z,100993.75
2023-02-22T17:50:26.573Z,100986.81
2023-02-22T17:52:53.199Z,100992.69
2023-02-22T17:55:20.736Z,100990.47
2023-02-22T17:57:48.780Z,100997.97
2023-02-22T18:00:23.394Z,100992.13
2023-02-22T18:02:51.202Z,100991.28
2023-02-22T18:05:18.353Z,100993.94
2023-02-22T18:07:45.669Z,100994.09
2023-02-22T18:10:12.712Z,100993.25
2023-02-22T18:12:39.919Z,100995.38
2023-02-22T18:15:08.700Z,100991.97
2023-02-22T18:17:36.963Z,100985.41
2023-02-22T18:20:11.772Z,100987.94
2023-02-22T18:22:42.052Z,100989.78
2023-02-22T18:25:16.380Z,100991.28
2023-02-22T18:27:45.803Z,100986.91
2023-02-22T18:30:12.810Z,100989.25
2023-02-22T18:32:39.742Z,100983.59
2023-02-22T18:35:06.762Z,100983.44
2023-02-22T18:37:34.190Z,100982.91
2023-02-22T18:40:00.762Z,100987.25
2023-02-22T18:42:28.347Z,100983.44
2023-02-22T18:45:00.553Z,100970.66
2023-02-22T18:47:27.547Z,100974.63
2023-02-22T18:49:54.497Z,100970.03
2023-02-22T18:52:21.385Z,100967.59
2023-02-22T18:54:49.038Z,100967.97
2023-02-22T18:57:16.019Z,100960.41
2023-02-22T18:59:43.254Z,100959.72
2023-02-22T19:02:14.372Z,100961.38
2023-02-22T19:04:41.115Z,100962.25
2023-02-22T19:07:07.527Z,100956.16
2023-02-22T19:09:36.292Z,100962.72
2023-02-22T19:12:03.125Z,100952.56
2023-02-22T19:14:29.560Z,100958.19
2023-02-22T19:16:59.228Z,100952.66
2023-02-22T19:19:26.726Z,100949.16
2023-02-22T19:21:56.256Z,100952.19
2023-02-22T19:24:22.971Z,100956.38
2023-02-22T19:26:53.919Z,100956.00
2023-02-22T19:29:23.566Z,100950.94
2023-02-22T19:31:51.967Z,100951.16
2023-02-22T19:34:21.948Z,100950.78
2023-02-22T19:36:48.615Z,100945.09
2023-02-22T19:39:19.829Z,100945.53
2023-02-22T19:41:46.956Z,100944.94
2023-02-22T19:44:13.504Z,100944.78
2023-02-22T19:46:40.555Z,100951.47
2023-02-22T19:49:07.582Z,100948.84
2023-02-22T19:51:34.378Z,100954.44
2023-02-22T19:54:03.206Z,100946.34
2023-02-22T19:56:31.094Z,100961.22
2023-02-22T19:59:06.506Z,100966.41
2023-02-22T20:01:33.431Z,100953.81
2023-02-22T20:04:05.313Z,100956.22
2023-02-22T20:06:34.907Z,100949.16
2023-02-22T20:09:02.626Z,100941.66
2023-02-22T20:11:29.109Z,100952.63
2023-02-22T20:13:55.651Z,100948.16
2023-02-22T20:16:22.742Z,100949.81
2023-02-22T20:18:50.144Z,100953.22
2023-02-22T20:21:24.789Z,100955.50
2023-02-22T20:23:51.490Z,100948.75
2023-02-22T20:26:20.788Z,100956.44
2023-02-22T20:28:47.301Z,100952.56
2023-02-22T20:31:14.466Z,100950.28
2023-02-22T20:33:48.580Z,100953.78
2023-02-22T20:36:17.042Z,100955.63
2023-02-22T20:38:43.748Z,100952.38
2023-02-22T20:41:14.913Z,100954.09
2023-02-22T20:43:41.411Z,100948.84
2023-02-22T20:46:08.247Z,100949.00
2023-02-22T20:48:34.914Z,100949.50
2023-02-22T20:51:12.774Z,100947.09
2023-02-22T20:53:41.705Z,100953.69
2023-02-22T20:56:16.152Z,100952.56
2023-02-22T20:58:43.086Z,100950.88
2023-02-22T21:01:13.981Z,100950.66
2023-02-22T21:03:42.125Z,100950.75
2023-02-22T21:06:11.754Z,100949.22
2023-02-22T21:08:38.220Z,100944.84
2023-02-22T21:11:10.771Z,100951.06
2023-02-22T21:13:37.205Z,100948.16
2023-02-22T21:16:03.845Z,100948.94
2023-02-22T21:18:30.257Z,100946.09
2023-02-22T21:20:56.936Z,100949.59
2023-02-22T21:23:23.424Z,100954.88
2023-02-22T21:25:51.727Z,100951.63
2023-02-22T21:28:18.324Z,100955.25
2023-02-22T21:30:45.869Z,100952.16
2023-02-22T21:33:12.390Z,100937.81
2023-02-22T21:35:43.069Z,100947.69
2023-02-22T21:38:14.304Z,100939.53
2023-02-22T21:40:41.854Z,100946.75
2023-02-22T21:43:11.099Z,100952.19
2023-02-22T21:45:38.367Z,100957.03
2023-02-22T21:48:05.500Z,100952.38
2023-02-22T21:50:32.595Z,100950.38
2023-02-22T21:52:59.171Z,100950.47
2023-02-22T21:55:25.736Z,100945.72
2023-02-22T21:57:52.456Z,100942.59
2023-02-22T22:00:29.130Z,100951.34
2023-02-22T22:03:08.359Z,100949.50
2023-02-22T22:05:38.683Z,100951.16
2023-02-22T22:08:07.472Z,100941.81
2023-02-22T22:10:34.429Z,100939.88
2023-02-22T22:13:00.944Z,100947.25
2023-02-22T22:15:30.242Z,100950.63
2023-02-22T22:18:02.658Z,100958.75
2023-02-22T22:20:29.110Z,100947.38
2023-02-22T22:22:55.540Z,100951.47
2023-02-22T22:25:24.317Z,100939.28
2023-02-22T22:27:51.238Z,100948.34
2023-02-22T22:30:17.966Z,100953.66
2023-02-22T22:32:45.324Z,100949.84
2023-02-22T22:35:14.552Z,100951.81
2023-02-22T22:37:42.315Z,100954.59
2023-02-22T22:40:15.645Z,100950.25
2023-02-22T22:42:42.658Z,100962.53
2023-02-22T22:45:13.790Z,100952.91
2023-02-22T22:47:46.698Z,100952.53
2023-02-22T22:50:15.273Z,100954.00
2023-02-22T22:52:42.166Z,100960.50
2023-02-22T22:55:11.981Z,100948.16
2023-02-22T22:57:39.709Z,100961.16
2023-02-22T23:00:44.988Z,100961.22
2023-02-22T23:03:16.456Z,100959.06
2023-02-22T23:05:43.325Z,100950.78
2023-02-22T23:08:10.929Z,100969.56
2023-02-22T23:10:39.281Z,100966.75
2023-02-22T23:13:10.082Z,100968.34
2023-02-22T23:15:42.598Z,100966.88
2023-02-22T23:18:09.493Z,100972.81
2023-02-22T23:20:38.924Z,100966.75
2023-02-22T23:23:06.064Z,100966.63
2023-02-22T23:25:33.341Z,100972.75
2023-02-22T23:27:59.981Z,100973.91
2023-02-22T23:30:26.978Z,100973.59
2023-02-22T23:32:53.732Z,100975.47
2023-02-22T23:35:20.136Z,100972.88
2023-02-22T23:37:53.022Z,100976.22
2023-02-22T23:40:19.576Z,100989.38
2023-02-22T23:42:49.732Z,100979.94
2023-02-22T23:45:22.661Z,100981.84
2023-02-22T23:48:01.467Z,100977.69
2023-02-22T23:50:30.224Z,100981.84
2023-02-22T23:53:03.418Z,100992.50
2023-02-22T23:55:31.853Z,100989.13
2023-02-22T23:57:59.431Z,100988.84
